Terminal Aerodrome Forecast
Issued by NWS

Home | Current Version | Previous Version | Text Only | Print | Product List | Glossary On
Versions: 1 2 3 4 5 6 7 8 9 10 11 12 13 14 15
000
FTAK31 PAJN 221700
TAFAPG
TAF
PAPG 221731Z 2218/2318 06005KT P6SM BKN200
     FM230300 VRB03KT P6SM SCT100 BKN200
     FM231100 21003KT P6SM -SHRA SCT002 SCT015 OVC050
      AMD LTD TO CLD VIS AND WIND 2306/2315=

USA.gov is the U.S. government's official web portal to all federal, state and local government web resources and services.